sensor_id;sensor_type;location;lat;lon;timestamp;pressure;altitude;pressure_sealevel;temperature;humidity
51759;BME280;66684;47.568;18.734;2024-01-15T00:02:19;98294.81;;;-3.33;100.00
51759;BME280;66684;47.568;18.734;2024-01-15T00:04:45;98278.66;;;-3.35;100.00
51759;BME280;66684;47.568;18.734;2024-01-15T00:07:10;98261.44;;;-3.17;100.00
51759;BME280;66684;47.568;18.734;2024-01-15T00:09:36;98253.84;;;-3.05;100.00
51759;BME280;66684;47.568;18.734;2024-01-15T00:12:02;98248.34;;;-3.11;100.00
51759;BME280;66684;47.568;18.734;2024-01-15T00:14:28;98243.09;;;-3.26;100.00
51759;BME280;66684;47.568;18.734;2024-01-15T00:16:54;98237.34;;;-3.47;100.00
51759;BME280;66684;47.568;18.734;2024-01-15T00:19:21;98235.59;;;-3.48;100.00
51759;BME280;66684;47.568;18.734;2024-01-15T00:21:47;98240.91;;;-3.45;100.00
51759;BME280;66684;47.568;18.734;2024-01-15T00:24:32;98239.81;;;-3.25;100.00
51759;BME280;66684;47.568;18.734;2024-01-15T00:26:58;98231.00;;;-3.18;100.00
51759;BME280;66684;47.568;18.734;2024-01-15T00:29:23;98226.41;;;-3.36;100.00
51759;BME280;66684;47.568;18.734;2024-01-15T00:31:49;98228.03;;;-3.48;100.00
51759;BME280;66684;47.568;18.734;2024-01-15T00:34:15;98216.84;;;-3.16;100.00
51759;BME280;66684;47.568;18.734;2024-01-15T00:36:41;98211.69;;;-3.06;100.00
51759;BME280;66684;47.568;18.734;2024-01-15T00:39:07;98211.31;;;-2.87;100.00
51759;BME280;66684;47.568;18.734;2024-01-15T00:41:33;98198.44;;;-2.79;100.00
51759;BME280;66684;47.568;18.734;2024-01-15T00:43:59;98193.59;;;-2.76;100.00
51759;BME280;66684;47.568;18.734;2024-01-15T00:46:24;98200.59;;;-2.72;100.00
51759;BME280;66684;47.568;18.734;2024-01-15T00:48:50;98189.16;;;-2.66;100.00
51759;BME280;66684;47.568;18.734;2024-01-15T00:51:16;98182.56;;;-2.64;100.00
51759;BME280;66684;47.568;18.734;2024-01-15T00:53:42;98186.13;;;-2.86;100.00
51759;BME280;66684;47.568;18.734;2024-01-15T00:56:08;98182.78;;;-2.61;100.00
51759;BME280;66684;47.568;18.734;2024-01-15T00:58:34;98187.78;;;-2.50;100.00
51759;BME280;66684;47.568;18.734;2024-01-15T01:01:00;98183.34;;;-2.40;100.00
51759;BME280;66684;47.568;18.734;2024-01-15T01:03:25;98171.72;;;-2.38;100.00
51759;BME280;66684;47.568;18.734;2024-01-15T01:05:51;98176.06;;;-2.36;100.00
51759;BME280;66684;47.568;18.734;2024-01-15T01:08:17;98165.97;;;-2.36;100.00
51759;BME280;66684;47.568;18.734;2024-01-15T01:10:43;98174.31;;;-2.37;100.00
51759;BME280;66684;47.568;18.734;2024-01-15T01:13:09;98169.28;;;-2.37;100.00
51759;BME280;66684;47.568;18.734;2024-01-15T01:15:35;98166.56;;;-2.27;100.00
51759;BME280;66684;47.568;18.734;2024-01-15T01:18:01;98168.53;;;-2.23;100.00
51759;BME280;66684;47.568;18.734;2024-01-15T01:20:27;98166.22;;;-2.20;100.00
51759;BME280;66684;47.568;18.734;2024-01-15T01:22:52;98156.53;;;-2.38;100.00
51759;BME280;66684;47.568;18.734;2024-01-15T01:25:18;98156.63;;;-2.62;100.00
51759;BME280;66684;47.568;18.734;2024-01-15T01:27:44;98145.16;;;-2.57;100.00
51759;BME280;66684;47.568;18.734;2024-01-15T01:30:10;98150.88;;;-2.59;100.00
51759;BME280;66684;47.568;18.734;2024-01-15T01:32:36;98143.03;;;-2.76;100.00
51759;BME280;66684;47.568;18.734;2024-01-15T01:35:02;98138.72;;;-2.77;100.00
51759;BME280;66684;47.568;18.734;2024-01-15T01:37:28;98139.56;;;-2.64;100.00
51759;BME280;66684;47.568;18.734;2024-01-15T01:39:54;98137.25;;;-2.61;100.00
51759;BME280;66684;47.568;18.734;2024-01-15T01:42:20;98135.50;;;-2.62;100.00
51759;BME280;66684;47.568;18.734;2024-01-15T01:44:46;98122.09;;;-2.61;100.00
51759;BME280;66684;47.568;18.734;2024-01-15T01:47:12;98119.34;;;-2.64;100.00
51759;BME280;66684;47.568;18.734;2024-01-15T01:49:37;98116.06;;;-2.63;100.00
51759;BME280;66684;47.568;18.734;2024-01-15T01:52:05;98105.38;;;-2.59;100.00
51759;BME280;66684;47.568;18.734;2024-01-15T01:54:32;98107.53;;;-2.52;100.00
51759;BME280;66684;47.568;18.734;2024-01-15T01:56:59;98105.00;;;-2.52;100.00
51759;BME280;66684;47.568;18.734;2024-01-15T01:59:28;98106.00;;;-2.50;100.00
51759;BME280;66684;47.568;18.734;2024-01-15T02:01:54;98110.53;;;-2.58;100.00
51759;BME280;66684;47.568;18.734;2024-01-15T02:04:23;98101.88;;;-2.61;100.00
51759;BME280;66684;47.568;18.734;2024-01-15T02:06:50;98095.66;;;-2.53;100.00
51759;BME280;66684;47.568;18.734;2024-01-15T02:09:17;98095.84;;;-2.63;100.00
51759;BME280;66684;47.568;18.734;2024-01-15T02:11:43;98113.31;;;-2.66;100.00
51759;BME280;66684;47.568;18.734;2024-01-15T02:14:09;98106.97;;;-2.73;100.00
51759;BME280;66684;47.568;18.734;2024-01-15T02:16:36;98113.78;;;-2.72;100.00
51759;BME280;66684;47.568;18.734;2024-01-15T02:19:02;98106.03;;;-2.87;100.00
51759;BME280;66684;47.568;18.734;2024-01-15T02:21:27;98098.47;;;-2.87;100.00
51759;BME280;66684;47.568;18.734;2024-01-15T02:23:55;98088.13;;;-2.90;100.00
51759;BME280;66684;47.568;18.734;2024-01-15T02:26:21;98100.75;;;-2.90;100.00
51759;BME280;66684;47.568;18.734;2024-01-15T02:28:48;98080.72;;;-3.00;100.00
51759;BME280;66684;47.568;18.734;2024-01-15T02:31:14;98081.00;;;-2.95;100.00
51759;BME280;66684;47.568;18.734;2024-01-15T02:33:40;98093.91;;;-3.04;100.00
51759;BME280;66684;47.568;18.734;2024-01-15T02:36:07;98103.87;;;-2.94;100.00
51759;BME280;66684;47.568;18.734;2024-01-15T02:38:33;98090.09;;;-2.86;100.00
51759;BME280;66684;47.568;18.734;2024-01-15T02:40:59;98092.75;;;-2.96;100.00
51759;BME280;66684;47.568;18.734;2024-01-15T02:43:25;98096.66;;;-3.01;100.00
51759;BME280;66684;47.568;18.734;2024-01-15T02:45:51;98087.87;;;-3.06;100.00
51759;BME280;66684;47.568;18.734;2024-01-15T02:48:17;98092.62;;;-3.22;100.00
51759;BME280;66684;47.568;18.734;2024-01-15T02:50:43;98082.34;;;-3.26;100.00
51759;BME280;66684;47.568;18.734;2024-01-15T02:53:08;98079.69;;;-3.27;100.00
51759;BME280;66684;47.568;18.734;2024-01-15T02:55:34;98079.03;;;-3.24;100.00
51759;BME280;66684;47.568;18.734;2024-01-15T02:58:00;98089.13;;;-3.24;100.00
51759;BME280;66684;47.568;18.734;2024-01-15T03:00:26;98084.69;;;-3.15;100.00
51759;BME280;66684;47.568;18.734;2024-01-15T03:02:52;98072.63;;;-3.08;100.00
51759;BME280;66684;47.568;18.734;2024-01-15T03:05:18;98062.44;;;-2.96;100.00
51759;BME280;66684;47.568;18.734;2024-01-15T03:07:44;98064.37;;;-3.05;100.00
51759;BME280;66684;47.568;18.734;2024-01-15T03:10:09;98054.78;;;-2.97;100.00
51759;BME280;66684;47.568;18.734;2024-01-15T03:12:35;98051.00;;;-2.91;100.00
51759;BME280;66684;47.568;18.734;2024-01-15T03:15:01;98040.53;;;-2.84;100.00
51759;BME280;66684;47.568;18.734;2024-01-15T03:17:27;98048.53;;;-2.78;100.00
51759;BME280;66684;47.568;18.734;2024-01-15T03:19:53;98062.97;;;-3.13;100.00
51759;BME280;66684;47.568;18.734;2024-01-15T03:22:19;98079.50;;;-3.42;100.00
51759;BME280;66684;47.568;18.734;2024-01-15T03:24:45;98060.44;;;-3.50;100.00
51759;BME280;66684;47.568;18.734;2024-01-15T03:27:11;98059.47;;;-3.75;100.00
51759;BME280;66684;47.568;18.734;2024-01-15T03:29:36;98071.97;;;-3.65;100.00
51759;BME280;66684;47.568;18.734;2024-01-15T03:32:02;98055.38;;;-3.50;100.00
51759;BME280;66684;47.568;18.734;2024-01-15T03:34:29;98053.06;;;-3.47;100.00
51759;BME280;66684;47.568;18.734;2024-01-15T03:36:54;98051.19;;;-3.38;100.00
51759;BME280;66684;47.568;18.734;2024-01-15T03:39:20;98048.44;;;-3.41;100.00
51759;BME280;66684;47.568;18.734;2024-01-15T03:41:46;98052.06;;;-3.37;100.00
51759;BME280;66684;47.568;18.734;2024-01-15T03:44:12;98051.69;;;-3.30;100.00
51759;BME280;66684;47.568;18.734;2024-01-15T03:46:38;98061.09;;;-3.16;100.00
51759;BME280;66684;47.568;18.734;2024-01-15T03:49:04;98057.69;;;-3.16;100.00
51759;BME280;66684;47.568;18.734;2024-01-15T03:51:30;98057.50;;;-3.19;100.00
51759;BME280;66684;47.568;18.734;2024-01-15T03:53:55;98050.94;;;-3.29;100.00
51759;BME280;66684;47.568;18.734;2024-01-15T03:56:21;98020.16;;;-3.23;100.00
51759;BME280;66684;47.568;18.734;2024-01-15T03:58:47;98025.44;;;-3.20;100.00
51759;BME280;66684;47.568;18.734;2024-01-15T04:01:13;98024.00;;;-3.65;100.00
51759;BME280;66684;47.568;18.734;2024-01-15T04:03:39;98021.97;;;-3.46;100.00
51759;BME280;66684;47.568;18.734;2024-01-15T04:06:05;98026.00;;;-3.24;100.00
51759;BME280;66684;47.568;18.734;2024-01-15T04:08:31;98037.13;;;-3.46;100.00
51759;BME280;66684;47.568;18.734;2024-01-15T04:10:57;98039.66;;;-3.46;100.00
51759;BME280;66684;47.568;18.734;2024-01-15T04:13:22;98042.84;;;-3.48;100.00
51759;BME280;66684;47.568;18.734;2024-01-15T04:15:48;98038.59;;;-3.49;100.00
51759;BME280;66684;47.568;18.734;2024-01-15T04:18:16;98048.59;;;-3.51;100.00
51759;BME280;66684;47.568;18.734;2024-01-15T04:20:41;98040.69;;;-3.67;100.00
51759;BME280;66684;47.568;18.734;2024-01-15T04:23:07;98040.50;;;-3.70;100.00
51759;BME280;66684;47.568;18.734;2024-01-15T04:25:33;98026.84;;;-3.61;100.00
51759;BME280;66684;47.568;18.734;2024-01-15T04:27:59;98031.91;;;-3.61;100.00
51759;BME280;66684;47.568;18.734;2024-01-15T04:30:25;98033.47;;;-3.63;100.00
51759;BME280;66684;47.568;18.734;2024-01-15T04:32:51;98017.97;;;-3.67;100.00
51759;BME280;66684;47.568;18.734;2024-01-15T04:35:17;98016.34;;;-3.78;100.00
51759;BME280;66684;47.568;18.734;2024-01-15T04:37:42;98012.75;;;-3.94;100.00
51759;BME280;66684;47.568;18.734;2024-01-15T04:40:09;98008.06;;;-3.89;100.00
51759;BME280;66684;47.568;18.734;2024-01-15T04:42:35;98007.28;;;-3.88;100.00
51759;BME280;66684;47.568;18.734;2024-01-15T04:45:01;98004.22;;;-4.19;100.00
51759;BME280;66684;47.568;18.734;2024-01-15T04:47:27;98011.34;;;-4.25;100.00
51759;BME280;66684;47.568;18.734;2024-01-15T04:49:52;98001.81;;;-4.29;100.00
51759;BME280;66684;47.568;18.734;2024-01-15T04:52:18;98034.37;;;-4.32;100.00
51759;BME280;66684;47.568;18.734;2024-01-15T04:54:44;98013.31;;;-4.21;100.00
51759;BME280;66684;47.568;18.734;2024-01-15T04:57:10;98025.72;;;-4.24;100.00
51759;BME280;66684;47.568;18.734;2024-01-15T04:59:36;98027.78;;;-4.30;100.00
51759;BME280;66684;47.568;18.734;2024-01-15T05:02:02;98022.94;;;-4.27;100.00
51759;BME280;66684;47.568;18.734;2024-01-15T05:04:28;98026.69;;;-4.46;100.00
51759;BME280;66684;47.568;18.734;2024-01-15T05:06:55;98024.47;;;-4.53;100.00
51759;BME280;66684;47.568;18.734;2024-01-15T05:09:21;98030.28;;;-4.42;100.00
51759;BME280;66684;47.568;18.734;2024-01-15T05:11:47;98036.97;;;-4.43;100.00
51759;BME280;66684;47.568;18.734;2024-01-15T05:14:13;98034.09;;;-4.71;100.00
51759;BME280;66684;47.568;18.734;2024-01-15T05:16:39;98030.38;;;-4.64;100.00
51759;BME280;66684;47.568;18.734;2024-01-15T05:19:07;98031.47;;;-4.61;100.00
51759;BME280;66684;47.568;18.734;2024-01-15T05:21:33;98020.50;;;-4.61;100.00
51759;BME280;66684;47.568;18.734;2024-01-15T05:23:59;98018.53;;;-4.53;100.00
51759;BME280;66684;47.568;18.734;2024-01-15T05:26:25;98019.13;;;-4.46;100.00
51759;BME280;66684;47.568;18.734;2024-01-15T05:28:51;98030.97;;;-4.45;100.00
51759;BME280;66684;47.568;18.734;2024-01-15T05:31:17;98034.87;;;-4.60;100.00
51759;BME280;66684;47.568;18.734;2024-01-15T05:33:43;98040.16;;;-4.57;100.00
51759;BME280;66684;47.568;18.734;2024-01-15T05:36:08;98041.19;;;-4.65;100.00
51759;BME280;66684;47.568;18.734;2024-01-15T05:38:34;98052.50;;;-4.60;100.00
51759;BME280;66684;47.568;18.734;2024-01-15T05:41:00;98045.50;;;-4.64;100.00
51759;BME280;66684;47.568;18.734;2024-01-15T05:43:26;98051.66;;;-4.49;100.00
51759;BME280;66684;47.568;18.734;2024-01-15T05:45:52;98046.16;;;-4.55;100.00
51759;BME280;66684;47.568;18.734;2024-01-15T05:48:18;98048.34;;;-4.71;100.00
51759;BME280;66684;47.568;18.734;2024-01-15T05:50:44;98038.69;;;-4.65;100.00
51759;BME280;66684;47.568;18.734;2024-01-15T05:53:10;98034.78;;;-4.50;100.00
51759;BME280;66684;47.568;18.734;2024-01-15T05:55:36;98023.72;;;-4.52;100.00
51759;BME280;66684;47.568;18.734;2024-01-15T05:58:04;98028.19;;;-4.48;100.00
51759;BME280;66684;47.568;18.734;2024-01-15T06:00:30;98016.38;;;-4.49;100.00
51759;BME280;66684;47.568;18.734;2024-01-15T06:02:56;98012.88;;;-4.51;100.00
51759;BME280;66684;47.568;18.734;2024-01-15T06:05:22;98018.34;;;-4.45;100.00
51759;BME280;66684;47.568;18.734;2024-01-15T06:07:48;98012.63;;;-4.54;100.00
51759;BME280;66684;47.568;18.734;2024-01-15T06:10:14;98013.72;;;-4.62;100.00
51759;BME280;66684;47.568;18.734;2024-01-15T06:12:40;98010.97;;;-4.77;100.00
51759;BME280;66684;47.568;18.734;2024-01-15T06:15:06;98014.25;;;-4.66;100.00
51759;BME280;66684;47.568;18.734;2024-01-15T06:17:32;98015.16;;;-4.54;100.00
51759;BME280;66684;47.568;18.734;2024-01-15T06:19:57;98020.63;;;-4.48;100.00
51759;BME280;66684;47.568;18.734;2024-01-15T06:22:23;98029.06;;;-4.59;100.00
51759;BME280;66684;47.568;18.734;2024-01-15T06:24:49;98034.09;;;-4.59;100.00
51759;BME280;66684;47.568;18.734;2024-01-15T06:27:15;98020.97;;;-4.55;100.00
51759;BME280;66684;47.568;18.734;2024-01-15T06:29:45;98035.22;;;-4.55;100.00
51759;BME280;66684;47.568;18.734;2024-01-15T06:32:14;98042.59;;;-4.80;100.00
51759;BME280;66684;47.568;18.734;2024-01-15T06:34:40;98041.06;;;-4.78;100.00
51759;BME280;66684;47.568;18.734;2024-01-15T06:37:06;98043.94;;;-4.74;100.00
51759;BME280;66684;47.568;18.734;2024-01-15T06:39:32;98038.94;;;-4.62;100.00
51759;BME280;66684;47.568;18.734;2024-01-15T06:41:58;98035.00;;;-4.58;100.00
51759;BME280;66684;47.568;18.734;2024-01-15T06:44:23;98037.63;;;-4.57;100.00
51759;BME280;66684;47.568;18.734;2024-01-15T06:46:49;98036.06;;;-4.67;100.00
51759;BME280;66684;47.568;18.734;2024-01-15T06:49:17;98041.38;;;-4.52;100.00
51759;BME280;66684;47.568;18.734;2024-01-15T06:51:43;98047.25;;;-4.63;100.00
51759;BME280;66684;47.568;18.734;2024-01-15T06:54:09;98055.66;;;-5.08;100.00
51759;BME280;66684;47.568;18.734;2024-01-15T06:56:35;98052.00;;;-4.90;100.00
51759;BME280;66684;47.568;18.734;2024-01-15T06:59:01;98057.03;;;-4.90;100.00
51759;BME280;66684;47.568;18.734;2024-01-15T07:01:27;98063.84;;;-4.89;100.00
51759;BME280;66684;47.568;18.734;2024-01-15T07:03:53;98064.72;;;-4.88;100.00
51759;BME280;66684;47.568;18.734;2024-01-15T07:06:18;98063.22;;;-4.74;100.00
51759;BME280;66684;47.568;18.734;2024-01-15T07:08:44;98058.34;;;-4.95;100.00
51759;BME280;66684;47.568;18.734;2024-01-15T07:11:10;98066.25;;;-4.78;100.00
51759;BME280;66684;47.568;18.734;2024-01-15T07:13:36;98076.28;;;-4.68;100.00
51759;BME280;66684;47.568;18.734;2024-01-15T07:16:03;98074.09;;;-4.64;100.00
51759;BME280;66684;47.568;18.734;2024-01-15T07:18:29;98066.88;;;-4.93;100.00
51759;BME280;66684;47.568;18.734;2024-01-15T07:20:55;98071.97;;;-4.81;100.00
51759;BME280;66684;47.568;18.734;2024-01-15T07:23:21;98070.00;;;-4.73;100.00
51759;BME280;66684;47.568;18.734;2024-01-15T07:25:47;98079.22;;;-4.74;100.00
51759;BME280;66684;47.568;18.734;2024-01-15T07:28:12;98082.38;;;-4.76;100.00
51759;BME280;66684;47.568;18.734;2024-01-15T07:30:39;98080.28;;;-4.82;100.00
51759;BME280;66684;47.568;18.734;2024-01-15T07:33:05;98085.22;;;-5.05;100.00
51759;BME280;66684;47.568;18.734;2024-01-15T07:35:31;98083.72;;;-5.25;100.00
51759;BME280;66684;47.568;18.734;2024-01-15T07:37:57;98093.00;;;-5.24;100.00
51759;BME280;66684;47.568;18.734;2024-01-15T07:40:23;98081.41;;;-5.22;100.00
51759;BME280;66684;47.568;18.734;2024-01-15T07:42:51;98082.75;;;-5.16;100.00
51759;BME280;66684;47.568;18.734;2024-01-15T07:45:17;98086.09;;;-5.05;100.00
51759;BME280;66684;47.568;18.734;2024-01-15T07:47:43;98083.06;;;-5.01;100.00
51759;BME280;66684;47.568;18.734;2024-01-15T07:50:10;98092.06;;;-4.93;100.00
51759;BME280;66684;47.568;18.734;2024-01-15T07:52:36;98096.00;;;-4.96;100.00
51759;BME280;66684;47.568;18.734;2024-01-15T07:55:02;98093.75;;;-4.81;100.00
51759;BME280;66684;47.568;18.734;2024-01-15T07:57:31;98098.50;;;-4.74;100.00
51759;BME280;66684;47.568;18.734;2024-01-15T07:59:57;98102.28;;;-4.79;100.00
51759;BME280;66684;47.568;18.734;2024-01-15T08:02:22;98095.75;;;-4.77;100.00
51759;BME280;66684;47.568;18.734;2024-01-15T08:04:48;98097.41;;;-4.66;100.00
51759;BME280;66684;47.568;18.734;2024-01-15T08:07:14;98089.34;;;-4.50;100.00
51759;BME280;66684;47.568;18.734;2024-01-15T08:09:40;98079.97;;;-4.29;100.00
51759;BME280;66684;47.568;18.734;2024-01-15T08:12:06;98062.19;;;-3.49;100.00
51759;BME280;66684;47.568;18.734;2024-01-15T08:14:32;98055.72;;;-2.71;100.00
51759;BME280;66684;47.568;18.734;2024-01-15T08:16:58;98065.87;;;-2.32;100.00
51759;BME280;66684;47.568;18.734;2024-01-15T08:19:24;98068.22;;;-2.09;100.00
51759;BME280;66684;47.568;18.734;2024-01-15T08:21:50;98070.41;;;-1.88;100.00
51759;BME280;66684;47.568;18.734;2024-01-15T08:24:16;98069.31;;;-1.66;100.00
51759;BME280;66684;47.568;18.734;2024-01-15T08:26:42;98070.28;;;-1.50;100.00
51759;BME280;66684;47.568;18.734;2024-01-15T08:29:08;98062.44;;;-1.40;100.00
51759;BME280;66684;47.568;18.734;2024-01-15T08:31:34;98064.34;;;-1.10;100.00
51759;BME280;66684;47.568;18.734;2024-01-15T08:34:00;98064.66;;;-0.90;100.00
51759;BME280;66684;47.568;18.734;2024-01-15T08:36:27;98066.03;;;-0.67;100.00
51759;BME280;66684;47.568;18.734;2024-01-15T08:38:55;98071.13;;;-0.52;100.00
51759;BME280;66684;47.568;18.734;2024-01-15T08:41:21;98074.09;;;-0.45;100.00
51759;BME280;66684;47.568;18.734;2024-01-15T08:43:46;98066.09;;;-0.23;100.00
51759;BME280;66684;47.568;18.734;2024-01-15T08:46:12;98072.03;;;-0.08;100.00
51759;BME280;66684;47.568;18.734;2024-01-15T08:48:38;98069.50;;;-0.08;100.00
51759;BME280;66684;47.568;18.734;2024-01-15T08:51:05;98062.22;;;-0.02;100.00
51759;BME280;66684;47.568;18.734;2024-01-15T08:53:31;98071.59;;;-0.01;100.00
51759;BME280;66684;47.568;18.734;2024-01-15T08:55:58;98091.12;;;0.01;100.00
51759;BME280;66684;47.568;18.734;2024-01-15T08:58:24;98091.03;;;0.14;100.00
51759;BME280;66684;47.568;18.734;2024-01-15T09:00:50;98093.19;;;0.37;100.00
51759;BME280;66684;47.568;18.734;2024-01-15T09:03:16;98084.56;;;0.50;100.00
51759;BME280;66684;47.568;18.734;2024-01-15T09:05:42;98082.97;;;0.67;100.00
51759;BME280;66684;47.568;18.734;2024-01-15T09:08:08;98084.88;;;0.71;100.00
51759;BME280;66684;47.568;18.734;2024-01-15T09:10:34;98074.84;;;0.89;99.82
51759;BME280;66684;47.568;18.734;2024-01-15T09:13:00;98070.53;;;1.04;97.44
51759;BME280;66684;47.568;18.734;2024-01-15T09:15:26;98067.84;;;1.17;96.59
51759;BME280;66684;47.568;18.734;2024-01-15T09:17:52;98065.94;;;1.13;96.71
51759;BME280;66684;47.568;18.734;2024-01-15T09:20:18;98050.97;;;1.19;93.66
51759;BME280;66684;47.568;18.734;2024-01-15T09:22:44;98045.50;;;1.28;94.47
51759;BME280;66684;47.568;18.734;2024-01-15T09:25:11;98058.47;;;1.32;94.39
51759;BME280;66684;47.568;18.734;2024-01-15T09:27:37;98045.66;;;1.31;93.10
51759;BME280;66684;47.568;18.734;2024-01-15T09:30:04;98051.78;;;1.34;91.71
51759;BME280;66684;47.568;18.734;2024-01-15T09:32:30;98043.66;;;1.42;93.05
51759;BME280;66684;47.568;18.734;2024-01-15T09:34:56;98041.94;;;1.41;93.18
51759;BME280;66684;47.568;18.734;2024-01-15T09:37:22;98046.78;;;1.52;93.04
51759;BME280;66684;47.568;18.734;2024-01-15T09:39:49;98034.66;;;1.65;90.72
51759;BME280;66684;47.568;18.734;2024-01-15T09:42:16;98035.28;;;1.60;90.70
51759;BME280;66684;47.568;18.734;2024-01-15T09:44:42;98026.72;;;1.58;89.98
51759;BME280;66684;47.568;18.734;2024-01-15T09:47:09;98041.50;;;1.66;89.87
51759;BME280;66684;47.568;18.734;2024-01-15T09:49:35;98034.28;;;1.75;88.69
51759;BME280;66684;47.568;18.734;2024-01-15T09:52:01;98024.03;;;1.73;88.46
51759;BME280;66684;47.568;18.734;2024-01-15T09:54:27;98021.06;;;1.82;87.39
51759;BME280;66684;47.568;18.734;2024-01-15T09:56:54;98027.06;;;1.82;89.35
51759;BME280;66684;47.568;18.734;2024-01-15T09:59:22;98019.63;;;1.87;88.49
51759;BME280;66684;47.568;18.734;2024-01-15T10:01:50;98001.75;;;2.03;87.64
51759;BME280;66684;47.568;18.734;2024-01-15T10:04:16;97995.84;;;2.04;87.16
51759;BME280;66684;47.568;18.734;2024-01-15T10:06:44;97991.25;;;2.15;88.02
51759;BME280;66684;47.568;18.734;2024-01-15T10:09:14;97975.09;;;2.14;86.02
51759;BME280;66684;47.568;18.734;2024-01-15T10:11:43;97990.81;;;2.24;84.45
51759;BME280;66684;47.568;18.734;2024-01-15T10:14:12;97987.63;;;2.28;84.83
51759;BME280;66684;47.568;18.734;2024-01-15T10:16:39;97974.81;;;2.08;83.91
51759;BME280;66684;47.568;18.734;2024-01-15T10:19:05;97983.41;;;2.10;85.11
51759;BME280;66684;47.568;18.734;2024-01-15T10:21:34;97977.44;;;2.10;84.24
51759;BME280;66684;47.568;18.734;2024-01-15T10:24:03;97963.59;;;2.23;84.16
51759;BME280;66684;47.568;18.734;2024-01-15T10:26:30;97973.59;;;2.37;82.37
51759;BME280;66684;47.568;18.734;2024-01-15T10:28:58;97965.78;;;2.33;84.17
51759;BME280;66684;47.568;18.734;2024-01-15T10:31:26;97950.28;;;2.48;83.47
51759;BME280;66684;47.568;18.734;2024-01-15T10:33:52;97966.53;;;2.50;83.28
51759;BME280;66684;47.568;18.734;2024-01-15T10:36:18;97976.00;;;2.52;84.07
51759;BME280;66684;47.568;18.734;2024-01-15T10:38:45;97958.44;;;2.58;82.53
51759;BME280;66684;47.568;18.734;2024-01-15T10:41:11;97952.25;;;2.53;84.83
51759;BME280;66684;47.568;18.734;2024-01-15T10:43:37;97948.94;;;2.56;82.96
51759;BME280;66684;47.568;18.734;2024-01-15T10:46:03;97961.59;;;2.72;83.48
51759;BME280;66684;47.568;18.734;2024-01-15T10:48:30;97946.41;;;2.75;82.92
51759;BME280;66684;47.568;18.734;2024-01-15T10:50:57;97961.06;;;2.60;82.87
51759;BME280;66684;47.568;18.734;2024-01-15T10:53:26;97961.44;;;2.69;83.52
51759;BME280;66684;47.568;18.734;2024-01-15T10:55:54;97954.88;;;2.74;80.51
51759;BME280;66684;47.568;18.734;2024-01-15T10:58:21;97948.16;;;2.76;81.44
51759;BME280;66684;47.568;18.734;2024-01-15T11:00:48;97940.00;;;2.83;81.67
51759;BME280;66684;47.568;18.734;2024-01-15T11:03:15;97941.41;;;2.96;81.35
51759;BME280;66684;47.568;18.734;2024-01-15T11:05:43;97937.78;;;2.91;81.23
51759;BME280;66684;47.568;18.734;2024-01-15T11:08:10;97936.31;;;2.96;79.87
51759;BME280;66684;47.568;18.734;2024-01-15T11:10:44;97945.47;;;3.12;81.18
51759;BME280;66684;47.568;18.734;2024-01-15T11:16:00;97937.97;;;3.36;78.34
51759;BME280;66684;47.568;18.734;2024-01-15T11:18:27;97936.25;;;3.56;76.48
51759;BME280;66684;47.568;18.734;2024-01-15T11:23:45;97942.47;;;3.62;72.90
51759;BME280;66684;47.568;18.734;2024-01-15T11:28:56;97961.47;;;3.69;71.11
51759;BME280;66684;47.568;18.734;2024-01-15T11:34:08;97975.56;;;3.59;71.08
51759;BME280;66684;47.568;18.734;2024-01-15T11:42:00;97936.72;;;3.26;71.97
51759;BME280;66684;47.568;18.734;2024-01-15T11:44:27;97935.16;;;3.30;72.63
51759;BME280;66684;47.568;18.734;2024-01-15T11:49:33;97933.59;;;3.53;71.30
51759;BME280;66684;47.568;18.734;2024-01-15T11:52:06;97941.97;;;3.50;71.95
51759;BME280;66684;47.568;18.734;2024-01-15T11:54:36;97944.22;;;3.42;71.39
51759;BME280;66684;47.568;18.734;2024-01-15T11:57:09;97934.44;;;3.53;71.07
51759;BME280;66684;47.568;18.734;2024-01-15T11:59:35;97932.38;;;3.44;71.14
51759;BME280;66684;47.568;18.734;2024-01-15T12:02:02;97921.06;;;3.59;70.29
51759;BME280;66684;47.568;18.734;2024-01-15T12:04:28;97931.25;;;3.38;70.77
51759;BME280;66684;47.568;18.734;2024-01-15T12:06:54;97908.31;;;3.39;71.02
51759;BME280;66684;47.568;18.734;2024-01-15T12:09:20;97901.00;;;3.47;70.44
51759;BME280;66684;47.568;18.734;2024-01-15T12:11:51;97906.47;;;3.56;69.90
51759;BME280;66684;47.568;18.734;2024-01-15T12:14:21;97909.97;;;3.37;72.08
51759;BME280;66684;47.568;18.734;2024-01-15T12:16:47;97908.09;;;3.54;72.20
51759;BME280;66684;47.568;18.734;2024-01-15T12:19:15;97913.44;;;3.39;71.94
51759;BME280;66684;47.568;18.734;2024-01-15T12:21:40;97907.19;;;3.52;72.71
51759;BME280;66684;47.568;18.734;2024-01-15T12:24:09;97887.69;;;3.76;72.92
51759;BME280;66684;47.568;18.734;2024-01-15T12:26:35;97877.94;;;3.66;70.34
51759;BME280;66684;47.568;18.734;2024-01-15T12:29:02;97876.31;;;3.68;70.47
51759;BME280;66684;47.568;18.734;2024-01-15T12:31:29;97878.03;;;3.47;72.01
51759;BME280;66684;47.568;18.734;2024-01-15T12:33:56;97873.03;;;3.50;71.30
51759;BME280;66684;47.568;18.734;2024-01-15T12:36:22;97873.16;;;3.53;71.67
51759;BME280;66684;47.568;18.734;2024-01-15T12:38:48;97869.09;;;3.58;71.89
51759;BME280;66684;47.568;18.734;2024-01-15T12:41:15;97873.09;;;3.31;72.15
51759;BME280;66684;47.568;18.734;2024-01-15T12:43:40;97869.88;;;3.35;72.81
51759;BME280;66684;47.568;18.734;2024-01-15T12:46:07;97861.66;;;3.42;72.45
51759;BME280;66684;47.568;18.734;2024-01-15T12:48:33;97862.09;;;3.53;72.62
51759;BME280;66684;47.568;18.734;2024-01-15T12:50:58;97846.31;;;3.42;73.04
51759;BME280;66684;47.568;18.734;2024-01-15T12:53:24;97850.88;;;3.28;73.84
51759;BME280;66684;47.568;18.734;2024-01-15T12:55:50;97844.34;;;3.35;74.53
51759;BME280;66684;47.568;18.734;2024-01-15T12:58:17;97849.56;;;3.38;74.03
51759;BME280;66684;47.568;18.734;2024-01-15T13:00:44;97845.16;;;3.34;74.01